sensor_id;sensor_type;location;lat;lon;timestamp;temperature;humidity
2439;DHT22;14509;47.992;7.848;2023-08-31T00:00:41;19.60;69.60
2439;DHT22;14509;47.992;7.848;2023-08-31T00:02:43;19.80;70.00
2439;DHT22;14509;47.992;7.848;2023-08-31T00:04:45;19.60;69.70
2439;DHT22;14509;47.992;7.848;2023-08-31T00:06:46;19.60;69.70
2439;DHT22;14509;47.992;7.848;2023-08-31T00:08:48;19.90;70.20
2439;DHT22;14509;47.992;7.848;2023-08-31T00:10:56;20.00;70.40
2439;DHT22;14509;47.992;7.848;2023-08-31T00:12:58;19.60;70.00
2439;DHT22;14509;47.992;7.848;2023-08-31T00:15:01;19.50;69.70
2439;DHT22;14509;47.992;7.848;2023-08-31T00:17:04;19.50;69.80
2439;DHT22;14509;47.992;7.848;2023-08-31T00:19:06;19.60;69.90
2439;DHT22;14509;47.992;7.848;2023-08-31T00:21:08;19.40;69.70
2439;DHT22;14509;47.992;7.848;2023-08-31T00:23:10;19.40;69.70
2439;DHT22;14509;47.992;7.848;2023-08-31T00:25:12;19.40;69.70
2439;DHT22;14509;47.992;7.848;2023-08-31T00:27:15;19.70;70.10
2439;DHT22;14509;47.992;7.848;2023-08-31T00:29:18;19.40;69.70
2439;DHT22;14509;47.992;7.848;2023-08-31T00:31:20;19.40;69.70
2439;DHT22;14509;47.992;7.848;2023-08-31T00:33:22;19.40;69.70
2439;DHT22;14509;47.992;7.848;2023-08-31T00:35:25;19.40;69.70
2439;DHT22;14509;47.992;7.848;2023-08-31T00:37:27;19.40;69.70
2439;DHT22;14509;47.992;7.848;2023-08-31T00:39:31;19.90;70.20
2439;DHT22;14509;47.992;7.848;2023-08-31T00:41:34;19.40;69.60
2439;DHT22;14509;47.992;7.848;2023-08-31T00:43:37;19.40;69.60
2439;DHT22;14509;47.992;7.848;2023-08-31T00:45:39;19.40;69.70
2439;DHT22;14509;47.992;7.848;2023-08-31T00:47:42;19.40;69.80
2439;DHT22;14509;47.992;7.848;2023-08-31T00:49:44;19.40;69.80
2439;DHT22;14509;47.992;7.848;2023-08-31T00:51:46;19.40;70.50
2439;DHT22;14509;47.992;7.848;2023-08-31T00:53:50;19.40;69.80
2439;DHT22;14509;47.992;7.848;2023-08-31T00:55:54;19.40;70.00
2439;DHT22;14509;47.992;7.848;2023-08-31T00:57:56;19.40;70.00
2439;DHT22;14509;47.992;7.848;2023-08-31T01:00:01;19.40;70.10
2439;DHT22;14509;47.992;7.848;2023-08-31T01:02:09;19.40;70.10
2439;DHT22;14509;47.992;7.848;2023-08-31T01:04:21;19.40;70.20
2439;DHT22;14509;47.992;7.848;2023-08-31T01:06:35;19.40;70.20
2439;DHT22;14509;47.992;7.848;2023-08-31T01:08:43;19.40;70.10
2439;DHT22;14509;47.992;7.848;2023-08-31T01:10:55;19.30;70.00
2439;DHT22;14509;47.992;7.848;2023-08-31T01:13:03;19.30;70.00
2439;DHT22;14509;47.992;7.848;2023-08-31T01:15:13;19.30;70.00
2439;DHT22;14509;47.992;7.848;2023-08-31T01:17:17;19.30;70.00
2439;DHT22;14509;47.992;7.848;2023-08-31T01:19:35;19.40;70.00
2439;DHT22;14509;47.992;7.848;2023-08-31T01:21:42;19.40;70.00
2439;DHT22;14509;47.992;7.848;2023-08-31T01:23:50;19.40;69.90
2439;DHT22;14509;47.992;7.848;2023-08-31T01:25:52;19.40;69.90
2439;DHT22;14509;47.992;7.848;2023-08-31T01:27:58;19.40;69.80
2439;DHT22;14509;47.992;7.848;2023-08-31T01:30:01;19.50;69.90
2439;DHT22;14509;47.992;7.848;2023-08-31T01:32:07;19.50;69.80
2439;DHT22;14509;47.992;7.848;2023-08-31T01:34:11;19.50;69.70
2439;DHT22;14509;47.992;7.848;2023-08-31T01:36:18;19.60;69.70
2439;DHT22;14509;47.992;7.848;2023-08-31T01:38:26;19.60;69.60
2439;DHT22;14509;47.992;7.848;2023-08-31T01:40:34;19.60;69.50
2439;DHT22;14509;47.992;7.848;2023-08-31T01:42:38;19.60;69.40
2439;DHT22;14509;47.992;7.848;2023-08-31T01:44:41;19.60;69.30
2439;DHT22;14509;47.992;7.848;2023-08-31T01:46:46;19.60;69.20
2439;DHT22;14509;47.992;7.848;2023-08-31T01:48:48;19.60;69.10
2439;DHT22;14509;47.992;7.848;2023-08-31T01:50:50;19.70;69.10
2439;DHT22;14509;47.992;7.848;2023-08-31T01:52:52;20.40;69.70
2439;DHT22;14509;47.992;7.848;2023-08-31T01:54:54;19.90;69.10
2439;DHT22;14509;47.992;7.848;2023-08-31T01:56:58;19.70;68.80
2439;DHT22;14509;47.992;7.848;2023-08-31T01:58:59;19.70;68.60
2439;DHT22;14509;47.992;7.848;2023-08-31T02:01:03;19.70;68.50
2439;DHT22;14509;47.992;7.848;2023-08-31T02:03:05;19.80;68.50
2439;DHT22;14509;47.992;7.848;2023-08-31T02:05:09;19.80;68.30
2439;DHT22;14509;47.992;7.848;2023-08-31T02:07:11;19.80;68.10
2439;DHT22;14509;47.992;7.848;2023-08-31T02:09:13;20.30;68.50
2439;DHT22;14509;47.992;7.848;2023-08-31T02:11:15;19.70;67.80
2439;DHT22;14509;47.992;7.848;2023-08-31T02:13:19;19.70;67.70
2439;DHT22;14509;47.992;7.848;2023-08-31T02:15:20;19.70;67.60
2439;DHT22;14509;47.992;7.848;2023-08-31T02:17:23;19.70;67.30
2439;DHT22;14509;47.992;7.848;2023-08-31T02:19:24;19.70;67.20
2439;DHT22;14509;47.992;7.848;2023-08-31T02:21:26;19.70;67.20
2439;DHT22;14509;47.992;7.848;2023-08-31T02:23:27;19.70;66.80
2439;DHT22;14509;47.992;7.848;2023-08-31T02:25:29;19.70;66.80
2439;DHT22;14509;47.992;7.848;2023-08-31T02:27:31;19.60;66.60
2439;DHT22;14509;47.992;7.848;2023-08-31T02:29:34;19.60;66.50
2439;DHT22;14509;47.992;7.848;2023-08-31T02:31:39;20.00;66.90
2439;DHT22;14509;47.992;7.848;2023-08-31T02:33:42;19.60;66.40
2439;DHT22;14509;47.992;7.848;2023-08-31T02:35:44;19.70;66.50
2439;DHT22;14509;47.992;7.848;2023-08-31T02:37:46;19.60;66.30
2439;DHT22;14509;47.992;7.848;2023-08-31T02:39:48;19.60;66.10
2439;DHT22;14509;47.992;7.848;2023-08-31T02:41:49;19.60;65.90
2439;DHT22;14509;47.992;7.848;2023-08-31T02:43:52;19.60;65.50
2439;DHT22;14509;47.992;7.848;2023-08-31T02:46:00;19.60;65.50
2439;DHT22;14509;47.992;7.848;2023-08-31T02:48:03;19.60;65.30
2439;DHT22;14509;47.992;7.848;2023-08-31T02:50:07;19.60;65.30
2439;DHT22;14509;47.992;7.848;2023-08-31T02:52:09;19.60;64.90
2439;DHT22;14509;47.992;7.848;2023-08-31T02:54:11;19.60;64.70
2439;DHT22;14509;47.992;7.848;2023-08-31T02:56:13;19.60;65.60
2439;DHT22;14509;47.992;7.848;2023-08-31T02:58:14;19.40;64.30
2439;DHT22;14509;47.992;7.848;2023-08-31T03:00:16;19.60;65.10
2439;DHT22;14509;47.992;7.848;2023-08-31T03:02:23;19.60;64.20
2439;DHT22;14509;47.992;7.848;2023-08-31T03:04:25;19.70;64.20
2439;DHT22;14509;47.992;7.848;2023-08-31T03:06:27;19.70;64.10
2439;DHT22;14509;47.992;7.848;2023-08-31T03:08:29;19.70;64.00
2439;DHT22;14509;47.992;7.848;2023-08-31T03:10:32;19.70;63.70
2439;DHT22;14509;47.992;7.848;2023-08-31T03:12:33;19.70;63.40
2439;DHT22;14509;47.992;7.848;2023-08-31T03:14:35;19.90;63.50
2439;DHT22;14509;47.992;7.848;2023-08-31T03:16:37;19.70;63.10
2439;DHT22;14509;47.992;7.848;2023-08-31T03:18:39;19.80;63.20
2439;DHT22;14509;47.992;7.848;2023-08-31T03:20:41;19.80;62.90
2439;DHT22;14509;47.992;7.848;2023-08-31T03:22:42;19.80;62.80
2439;DHT22;14509;47.992;7.848;2023-08-31T03:24:44;19.80;62.70
2439;DHT22;14509;47.992;7.848;2023-08-31T03:26:46;19.80;62.70
2439;DHT22;14509;47.992;7.848;2023-08-31T03:28:48;19.80;62.50
2439;DHT22;14509;47.992;7.848;2023-08-31T03:30:54;19.80;62.60
2439;DHT22;14509;47.992;7.848;2023-08-31T03:32:56;19.90;62.60
2439;DHT22;14509;47.992;7.848;2023-08-31T03:35:01;19.80;62.40
2439;DHT22;14509;47.992;7.848;2023-08-31T03:37:04;19.80;62.40
2439;DHT22;14509;47.992;7.848;2023-08-31T03:39:09;19.70;62.00
2439;DHT22;14509;47.992;7.848;2023-08-31T03:41:11;19.80;62.10
2439;DHT22;14509;47.992;7.848;2023-08-31T03:43:14;19.80;61.80
2439;DHT22;14509;47.992;7.848;2023-08-31T03:45:15;19.70;61.70
2439;DHT22;14509;47.992;7.848;2023-08-31T03:47:17;19.70;61.60
2439;DHT22;14509;47.992;7.848;2023-08-31T03:49:18;19.80;61.70
2439;DHT22;14509;47.992;7.848;2023-08-31T03:51:22;19.80;61.60
2439;DHT22;14509;47.992;7.848;2023-08-31T03:53:24;19.80;61.40
2439;DHT22;14509;47.992;7.848;2023-08-31T03:55:31;19.80;61.40
2439;DHT22;14509;47.992;7.848;2023-08-31T03:57:32;20.20;61.60
2439;DHT22;14509;47.992;7.848;2023-08-31T03:59:42;19.80;61.20
2439;DHT22;14509;47.992;7.848;2023-08-31T04:01:44;19.80;61.20
2439;DHT22;14509;47.992;7.848;2023-08-31T04:03:46;19.80;61.20
2439;DHT22;14509;47.992;7.848;2023-08-31T04:05:53;19.80;61.20
2439;DHT22;14509;47.992;7.848;2023-08-31T04:07:57;19.80;61.20
2439;DHT22;14509;47.992;7.848;2023-08-31T04:09:59;19.80;61.20
2439;DHT22;14509;47.992;7.848;2023-08-31T04:12:00;19.80;61.30
2439;DHT22;14509;47.992;7.848;2023-08-31T04:14:05;19.80;61.20
2439;DHT22;14509;47.992;7.848;2023-08-31T04:16:07;19.90;61.30
2439;DHT22;14509;47.992;7.848;2023-08-31T04:18:09;19.90;61.30
2439;DHT22;14509;47.992;7.848;2023-08-31T04:20:11;19.90;61.30
2439;DHT22;14509;47.992;7.848;2023-08-31T04:22:13;20.80;62.30
2439;DHT22;14509;47.992;7.848;2023-08-31T04:24:16;20.00;61.30
2439;DHT22;14509;47.992;7.848;2023-08-31T04:26:17;21.00;62.30
2439;DHT22;14509;47.992;7.848;2023-08-31T04:28:19;19.90;61.30
2439;DHT22;14509;47.992;7.848;2023-08-31T04:30:20;20.00;61.40
2439;DHT22;14509;47.992;7.848;2023-08-31T04:32:21;20.00;61.30
2439;DHT22;14509;47.992;7.848;2023-08-31T04:34:23;20.00;61.20
2439;DHT22;14509;47.992;7.848;2023-08-31T04:36:25;20.00;61.10
2439;DHT22;14509;47.992;7.848;2023-08-31T04:38:27;20.10;61.30
2439;DHT22;14509;47.992;7.848;2023-08-31T04:40:30;20.00;61.20
2439;DHT22;14509;47.992;7.848;2023-08-31T04:42:32;20.10;61.40
2439;DHT22;14509;47.992;7.848;2023-08-31T04:44:35;20.10;61.50
2439;DHT22;14509;47.992;7.848;2023-08-31T04:46:38;20.10;61.60
2439;DHT22;14509;47.992;7.848;2023-08-31T04:48:40;20.20;61.80
2439;DHT22;14509;47.992;7.848;2023-08-31T04:50:42;20.10;61.80
2439;DHT22;14509;47.992;7.848;2023-08-31T04:52:44;20.20;62.00
2439;DHT22;14509;47.992;7.848;2023-08-31T04:54:45;20.80;62.70
2439;DHT22;14509;47.992;7.848;2023-08-31T04:56:48;20.30;62.30
2439;DHT22;14509;47.992;7.848;2023-08-31T04:58:50;20.40;62.50
2439;DHT22;14509;47.992;7.848;2023-08-31T05:00:51;20.20;62.20
2439;DHT22;14509;47.992;7.848;2023-08-31T05:02:53;20.20;62.30
2439;DHT22;14509;47.992;7.848;2023-08-31T05:04:55;20.20;62.40
2439;DHT22;14509;47.992;7.848;2023-08-31T05:06:57;20.20;62.40
2439;DHT22;14509;47.992;7.848;2023-08-31T05:08:59;20.20;62.40
2439;DHT22;14509;47.992;7.848;2023-08-31T05:11:01;20.30;62.10
2439;DHT22;14509;47.992;7.848;2023-08-31T05:13:04;20.40;62.30
2439;DHT22;14509;47.992;7.848;2023-08-31T05:15:07;20.20;62.00
2439;DHT22;14509;47.992;7.848;2023-08-31T05:17:10;20.20;62.00
2439;DHT22;14509;47.992;7.848;2023-08-31T05:19:12;20.20;61.90
2439;DHT22;14509;47.992;7.848;2023-08-31T05:21:13;20.20;61.70
2439;DHT22;14509;47.992;7.848;2023-08-31T05:23:15;20.20;61.60
2439;DHT22;14509;47.992;7.848;2023-08-31T05:25:17;20.20;61.30
2439;DHT22;14509;47.992;7.848;2023-08-31T05:27:19;20.20;61.30
2439;DHT22;14509;47.992;7.848;2023-08-31T05:29:22;20.20;61.20
2439;DHT22;14509;47.992;7.848;2023-08-31T05:31:24;20.20;61.20
2439;DHT22;14509;47.992;7.848;2023-08-31T05:33:26;20.70;61.70
2439;DHT22;14509;47.992;7.848;2023-08-31T05:35:30;20.20;61.00
2439;DHT22;14509;47.992;7.848;2023-08-31T05:37:33;20.30;61.00
2439;DHT22;14509;47.992;7.848;2023-08-31T05:39:35;20.40;60.90
2439;DHT22;14509;47.992;7.848;2023-08-31T05:41:40;20.30;60.70
2439;DHT22;14509;47.992;7.848;2023-08-31T05:43:42;20.40;60.80
2439;DHT22;14509;47.992;7.848;2023-08-31T05:45:44;20.40;60.70
2439;DHT22;14509;47.992;7.848;2023-08-31T05:47:47;20.40;60.50
2439;DHT22;14509;47.992;7.848;2023-08-31T05:49:49;20.40;60.10
2439;DHT22;14509;47.992;7.848;2023-08-31T05:51:49;20.40;60.00
2439;DHT22;14509;47.992;7.848;2023-08-31T05:53:52;20.40;60.10
2439;DHT22;14509;47.992;7.848;2023-08-31T05:55:55;20.50;60.20
2439;DHT22;14509;47.992;7.848;2023-08-31T05:58:04;20.40;60.00
2439;DHT22;14509;47.992;7.848;2023-08-31T06:00:07;20.50;60.00
2439;DHT22;14509;47.992;7.848;2023-08-31T06:02:14;20.40;60.00
2439;DHT22;14509;47.992;7.848;2023-08-31T06:04:16;20.40;60.10
2439;DHT22;14509;47.992;7.848;2023-08-31T06:06:18;20.40;60.20
2439;DHT22;14509;47.992;7.848;2023-08-31T06:08:20;20.70;60.60
2439;DHT22;14509;47.992;7.848;2023-08-31T06:10:22;21.30;61.30
2439;DHT22;14509;47.992;7.848;2023-08-31T06:12:23;20.40;60.40
2439;DHT22;14509;47.992;7.848;2023-08-31T06:14:24;21.10;61.10
2439;DHT22;14509;47.992;7.848;2023-08-31T06:16:26;20.30;60.40
2439;DHT22;14509;47.992;7.848;2023-08-31T06:18:29;20.30;60.40
2439;DHT22;14509;47.992;7.848;2023-08-31T06:20:31;20.30;60.30
2439;DHT22;14509;47.992;7.848;2023-08-31T06:22:33;20.30;60.40
2439;DHT22;14509;47.992;7.848;2023-08-31T06:24:35;20.50;60.70
2439;DHT22;14509;47.992;7.848;2023-08-31T06:26:37;20.30;60.60
2439;DHT22;14509;47.992;7.848;2023-08-31T06:28:39;20.30;60.90
2439;DHT22;14509;47.992;7.848;2023-08-31T06:30:41;20.60;61.30
2439;DHT22;14509;47.992;7.848;2023-08-31T06:32:47;20.20;61.00
2439;DHT22;14509;47.992;7.848;2023-08-31T06:34:52;20.20;61.00
2439;DHT22;14509;47.992;7.848;2023-08-31T06:36:54;20.20;60.90
2439;DHT22;14509;47.992;7.848;2023-08-31T06:38:58;20.20;60.90
2439;DHT22;14509;47.992;7.848;2023-08-31T06:41:01;20.20;61.00
2439;DHT22;14509;47.992;7.848;2023-08-31T06:43:03;20.20;61.00
2439;DHT22;14509;47.992;7.848;2023-08-31T06:45:07;20.70;61.40
2439;DHT22;14509;47.992;7.848;2023-08-31T06:47:09;20.20;60.70
2439;DHT22;14509;47.992;7.848;2023-08-31T06:49:11;20.20;60.30
2439;DHT22;14509;47.992;7.848;2023-08-31T06:51:14;20.20;59.90
2439;DHT22;14509;47.992;7.848;2023-08-31T06:53:16;20.30;59.70
2439;DHT22;14509;47.992;7.848;2023-08-31T06:55:18;20.30;59.40
2439;DHT22;14509;47.992;7.848;2023-08-31T06:57:20;20.40;59.40
2439;DHT22;14509;47.992;7.848;2023-08-31T06:59:21;20.40;59.30
2439;DHT22;14509;47.992;7.848;2023-08-31T07:01:22;21.10;59.70
2439;DHT22;14509;47.992;7.848;2023-08-31T07:03:24;20.50;59.00
2439;DHT22;14509;47.992;7.848;2023-08-31T07:05:26;20.60;58.50
2439;DHT22;14509;47.992;7.848;2023-08-31T07:07:31;21.30;58.80
2439;DHT22;14509;47.992;7.848;2023-08-31T07:09:33;20.70;58.10
2439;DHT22;14509;47.992;7.848;2023-08-31T07:11:35;20.70;57.90
2439;DHT22;14509;47.992;7.848;2023-08-31T07:13:37;20.70;57.80
2439;DHT22;14509;47.992;7.848;2023-08-31T07:15:39;20.80;57.70
2439;DHT22;14509;47.992;7.848;2023-08-31T07:17:41;20.90;57.60
2439;DHT22;14509;47.992;7.848;2023-08-31T07:19:42;21.00;57.20
2439;DHT22;14509;47.992;7.848;2023-08-31T07:21:43;21.00;56.30
2439;DHT22;14509;47.992;7.848;2023-08-31T07:23:47;21.10;54.90
2439;DHT22;14509;47.992;7.848;2023-08-31T07:25:49;21.20;55.20
2439;DHT22;14509;47.992;7.848;2023-08-31T07:27:51;21.30;54.80
2439;DHT22;14509;47.992;7.848;2023-08-31T07:29:54;21.30;54.40
2439;DHT22;14509;47.992;7.848;2023-08-31T07:31:56;21.40;54.50
2439;DHT22;14509;47.992;7.848;2023-08-31T07:33:58;21.40;54.30
2439;DHT22;14509;47.992;7.848;2023-08-31T07:36:01;21.60;54.30
2439;DHT22;14509;47.992;7.848;2023-08-31T07:38:04;21.60;53.20
2439;DHT22;14509;47.992;7.848;2023-08-31T07:40:08;21.70;52.90
2439;DHT22;14509;47.992;7.848;2023-08-31T07:42:10;21.80;52.40
2439;DHT22;14509;47.992;7.848;2023-08-31T07:44:12;21.90;52.50
2439;DHT22;14509;47.992;7.848;2023-08-31T07:46:14;22.00;52.60
2439;DHT22;14509;47.992;7.848;2023-08-31T07:48:16;22.30;52.80
2439;DHT22;14509;47.992;7.848;2023-08-31T07:50:18;22.30;52.70
2439;DHT22;14509;47.992;7.848;2023-08-31T07:52:20;22.30;52.00
2439;DHT22;14509;47.992;7.848;2023-08-31T07:54:22;22.90;52.00
2439;DHT22;14509;47.992;7.848;2023-08-31T07:56:25;22.80;51.70
2439;DHT22;14509;47.992;7.848;2023-08-31T07:58:27;22.90;52.30
2439;DHT22;14509;47.992;7.848;2023-08-31T08:00:28;22.60;50.90
2439;DHT22;14509;47.992;7.848;2023-08-31T08:02:30;22.50;50.10
2439;DHT22;14509;47.992;7.848;2023-08-31T08:04:32;22.70;50.50
2439;DHT22;14509;47.992;7.848;2023-08-31T08:06:34;22.70;50.60
2439;DHT22;14509;47.992;7.848;2023-08-31T08:08:36;22.80;50.50
2439;DHT22;14509;47.992;7.848;2023-08-31T08:10:38;22.80;50.40
2439;DHT22;14509;47.992;7.848;2023-08-31T08:12:42;22.90;49.30
2439;DHT22;14509;47.992;7.848;2023-08-31T08:14:45;22.90;49.10
2439;DHT22;14509;47.992;7.848;2023-08-31T08:16:47;23.00;48.50
2439;DHT22;14509;47.992;7.848;2023-08-31T08:18:50;23.10;48.10
2439;DHT22;14509;47.992;7.848;2023-08-31T08:20:52;23.20;47.60
2439;DHT22;14509;47.992;7.848;2023-08-31T08:22:54;23.30;47.70
2439;DHT22;14509;47.992;7.848;2023-08-31T08:24:56;23.40;46.70
2439;DHT22;14509;47.992;7.848;2023-08-31T08:26:58;23.60;46.40
2439;DHT22;14509;47.992;7.848;2023-08-31T08:29:01;23.80;45.50
2439;DHT22;14509;47.992;7.848;2023-08-31T08:31:03;23.90;44.10
2439;DHT22;14509;47.992;7.848;2023-08-31T08:33:05;24.00;41.60
2439;DHT22;14509;47.992;7.848;2023-08-31T08:35:07;24.10;39.60
2439;DHT22;14509;47.992;7.848;2023-08-31T08:37:09;24.20;36.90
2439;DHT22;14509;47.992;7.848;2023-08-31T08:39:11;24.20;36.70
2439;DHT22;14509;47.992;7.848;2023-08-31T08:41:14;24.40;37.70
2439;DHT22;14509;47.992;7.848;2023-08-31T08:43:15;24.50;34.10
2439;DHT22;14509;47.992;7.848;2023-08-31T08:45:20;24.60;34.00
2439;DHT22;14509;47.992;7.848;2023-08-31T08:47:25;24.60;32.10
2439;DHT22;14509;47.992;7.848;2023-08-31T08:49:28;24.60;33.10
2439;DHT22;14509;47.992;7.848;2023-08-31T08:51:31;24.70;32.80
2439;DHT22;14509;47.992;7.848;2023-08-31T08:53:33;24.80;33.80
2439;DHT22;14509;47.992;7.848;2023-08-31T08:55:36;24.80;34.70
2439;DHT22;14509;47.992;7.848;2023-08-31T08:57:38;25.20;35.10
2439;DHT22;14509;47.992;7.848;2023-08-31T08:59:40;25.10;35.00
2439;DHT22;14509;47.992;7.848;2023-08-31T09:01:43;25.20;35.70
2439;DHT22;14509;47.992;7.848;2023-08-31T09:03:45;25.50;36.30
2439;DHT22;14509;47.992;7.848;2023-08-31T09:05:48;25.50;36.00
2439;DHT22;14509;47.992;7.848;2023-08-31T09:08:04;25.50;35.80
2439;DHT22;14509;47.992;7.848;2023-08-31T09:10:06;25.60;36.20
2439;DHT22;14509;47.992;7.848;2023-08-31T09:12:08;25.70;36.20
2439;DHT22;14509;47.992;7.848;2023-08-31T09:14:14;25.80;36.50
2439;DHT22;14509;47.992;7.848;2023-08-31T09:16:24;25.90;36.20
2439;DHT22;14509;47.992;7.848;2023-08-31T09:18:29;26.10;36.20
2439;DHT22;14509;47.992;7.848;2023-08-31T09:20:32;26.30;35.90
2439;DHT22;14509;47.992;7.848;2023-08-31T09:22:42;26.50;35.50
2439;DHT22;14509;47.992;7.848;2023-08-31T09:24:46;26.60;35.70
2439;DHT22;14509;47.992;7.848;2023-08-31T09:26:50;26.70;35.50
2439;DHT22;14509;47.992;7.848;2023-08-31T09:28:53;26.80;35.50
2439;DHT22;14509;47.992;7.848;2023-08-31T09:31:05;26.90;35.80
2439;DHT22;14509;47.992;7.848;2023-08-31T09:33:08;27.10;35.90
2439;DHT22;14509;47.992;7.848;2023-08-31T09:35:12;27.30;35.90
2439;DHT22;14509;47.992;7.848;2023-08-31T09:37:16;27.50;35.90
2439;DHT22;14509;47.992;7.848;2023-08-31T09:39:17;27.80;35.70
2439;DHT22;14509;47.992;7.848;2023-08-31T09:41:19;28.00;35.90
2439;DHT22;14509;47.992;7.848;2023-08-31T09:43:23;28.10;36.00
2439;DHT22;14509;47.992;7.848;2023-08-31T09:45:30;28.10;35.60
2439;DHT22;14509;47.992;7.848;2023-08-31T09:47:32;28.20;35.50
2439;DHT22;14509;47.992;7.848;2023-08-31T09:49:35;28.20;35.70
2439;DHT22;14509;47.992;7.848;2023-08-31T09:51:43;28.30;35.70
2439;DHT22;14509;47.992;7.848;2023-08-31T09:53:48;28.20;35.70
2439;DHT22;14509;47.992;7.848;2023-08-31T09:55:51;28.30;36.20
2439;DHT22;14509;47.992;7.848;2023-08-31T09:57:56;28.30;36.10
2439;DHT22;14509;47.992;7.848;2023-08-31T09:59:59;28.40;33.90
2439;DHT22;14509;47.992;7.848;2023-08-31T10:02:01;28.20;33.90
2439;DHT22;14509;47.992;7.848;2023-08-31T10:04:04;28.20;35.50
2439;DHT22;14509;47.992;7.848;2023-08-31T10:06:09;28.20;35.70
2439;DHT22;14509;47.992;7.848;2023-08-31T10:08:14;28.30;36.10
2439;DHT22;14509;47.992;7.848;2023-08-31T10:10:17;28.40;35.50
2439;DHT22;14509;47.992;7.848;2023-08-31T10:12:19;28.50;34.70
2439;DHT22;14509;47.992;7.848;2023-08-31T10:14:22;28.40;35.30
2439;DHT22;14509;47.992;7.848;2023-08-31T10:16:25;28.30;35.80
2439;DHT22;14509;47.992;7.848;2023-08-31T10:18:28;28.30;35.80
2439;DHT22;14509;47.992;7.848;2023-08-31T10:20:31;28.30;35.90
2439;DHT22;14509;47.992;7.848;2023-08-31T10:22:34;28.20;36.30
2439;DHT22;14509;47.992;7.848;2023-08-31T10:25:00;28.40;37.00
2439;DHT22;14509;47.992;7.848;2023-08-31T10:27:17;27.90;36.90
2439;DHT22;14509;47.992;7.848;2023-08-31T10:29:28;27.70;36.20
2439;DHT22;14509;47.992;7.848;2023-08-31T10:31:31;27.60;36.40
2439;DHT22;14509;47.992;7.848;2023-08-31T10:33:34;27.50;36.80
2439;DHT22;14509;47.992;7.848;2023-08-31T10:35:49;27.50;36.30
2439;DHT22;14509;47.992;7.848;2023-08-31T10:37:51;27.60;36.40
2439;DHT22;14509;47.992;7.848;2023-08-31T10:40:08;27.60;36.60
2439;DHT22;14509;47.992;7.848;2023-08-31T10:42:12;27.70;36.60
2439;DHT22;14509;47.992;7.848;2023-08-31T10:44:18;27.90;35.90
2439;DHT22;14509;47.992;7.848;2023-08-31T10:46:28;28.00;35.00
2439;DHT22;14509;47.992;7.848;2023-08-31T10:48:49;28.00;35.20
2439;DHT22;14509;47.992;7.848;2023-08-31T10:50:50;27.90;34.90
2439;DHT22;14509;47.992;7.848;2023-08-31T10:52:52;27.60;34.90
2439;DHT22;14509;47.992;7.848;2023-08-31T10:54:55;27.50;35.40
2439;DHT22;14509;47.992;7.848;2023-08-31T10:57:05;27.40;36.20
2439;DHT22;14509;47.992;7.848;2023-08-31T10:59:07;27.30;36.50
2439;DHT22;14509;47.992;7.848;2023-08-31T11:01:09;27.50;36.40
2439;DHT22;14509;47.992;7.848;2023-08-31T11:03:12;27.60;36.30
2439;DHT22;14509;47.992;7.848;2023-08-31T11:05:15;27.70;35.20
2439;DHT22;14509;47.992;7.848;2023-08-31T11:07:19;27.70;35.00
2439;DHT22;14509;47.992;7.848;2023-08-31T11:09:20;27.70;34.80
2439;DHT22;14509;47.992;7.848;2023-08-31T11:11:23;27.70;34.80
2439;DHT22;14509;47.992;7.848;2023-08-31T11:13:26;27.80;35.00
2439;DHT22;14509;47.992;7.848;2023-08-31T11:15:28;27.90;34.30
2439;DHT22;14509;47.992;7.848;2023-08-31T11:17:31;28.30;34.60
2439;DHT22;14509;47.992;7.848;2023-08-31T11:19:33;28.20;34.10
2439;DHT22;14509;47.992;7.848;2023-08-31T11:21:36;28.40;33.80
2439;DHT22;14509;47.992;7.848;2023-08-31T11:23:38;28.50;33.60
2439;DHT22;14509;47.992;7.848;2023-08-31T11:25:42;28.80;33.30
2439;DHT22;14509;47.992;7.848;2023-08-31T11:27:53;29.10;32.80
2439;DHT22;14509;47.992;7.848;2023-08-31T11:29:56;29.30;32.40
2439;DHT22;14509;47.992;7.848;2023-08-31T11:31:58;29.50;31.10
2439;DHT22;14509;47.992;7.848;2023-08-31T11:34:01;29.60;30.90
2439;DHT22;14509;47.992;7.848;2023-08-31T11:36:03;29.60;31.40
2439;DHT22;14509;47.992;7.848;2023-08-31T11:38:05;29.60;31.80
2439;DHT22;14509;47.992;7.848;2023-08-31T11:40:09;29.80;31.80
2439;DHT22;14509;47.992;7.848;2023-08-31T11:42:11;29.80;31.40
2439;DHT22;14509;47.992;7.848;2023-08-31T11:44:15;29.90;31.20
2439;DHT22;14509;47.992;7.848;2023-08-31T11:46:19;30.00;31.00
2439;DHT22;14509;47.992;7.848;2023-08-31T11:48:21;30.10;31.10
2439;DHT22;14509;47.992;7.848;2023-08-31T11:50:24;30.20;31.00
2439;DHT22;14509;47.992;7.848;2023-08-31T11:52:27;30.30;31.20
2439;DHT22;14509;47.992;7.848;2023-08-31T11:54:29;30.40;30.70
2439;DHT22;14509;47.992;7.848;2023-08-31T11:56:40;30.50;30.00
2439;DHT22;14509;47.992;7.848;2023-08-31T11:58:43;30.60;29.90
2439;DHT22;14509;47.992;7.848;2023-08-31T12:00:54;30.70;29.60
2439;DHT22;14509;47.992;7.848;2023-08-31T12:02:58;30.70;29.70
2439;DHT22;14509;47.992;7.848;2023-08-31T12:05:00;30.80;29.60
2439;DHT22;14509;47.992;7.848;2023-08-31T12:07:03;30.90;29.80
2439;DHT22;14509;47.992;7.848;2023-08-31T12:09:07;31.00;29.80
2439;DHT22;14509;47.992;7.848;2023-08-31T12:11:09;31.10;29.80
2439;DHT22;14509;47.992;7.848;2023-08-31T12:13:12;31.20;29.50
2439;DHT22;14509;47.992;7.848;2023-08-31T12:15:14;31.30;29.20
2439;DHT22;14509;47.992;7.848;2023-08-31T12:17:18;31.40;29.10
2439;DHT22;14509;47.992;7.848;2023-08-31T12:19:26;31.40;28.20
2439;DHT22;14509;47.992;7.848;2023-08-31T12:21:29;31.20;28.70
2439;DHT22;14509;47.992;7.848;2023-08-31T12:23:30;31.20;28.60
2439;DHT22;14509;47.992;7.848;2023-08-31T12:25:33;31.20;28.80
2439;DHT22;14509;47.992;7.848;2023-08-31T12:27:33;31.40;28.70
2439;DHT22;14509;47.992;7.848;2023-08-31T12:29:36;31.50;28.00
2439;DHT22;14509;47.992;7.848;2023-08-31T12:31:38;31.70;27.70
2439;DHT22;14509;47.992;7.848;2023-08-31T12:33:40;31.70;27.20
2439;DHT22;14509;47.992;7.848;2023-08-31T12:35:44;31.60;27.50
2439;DHT22;14509;47.992;7.848;2023-08-31T12:37:46;31.40;27.20
2439;DHT22;14509;47.992;7.848;2023-08-31T12:39:48;31.20;27.40
2439;DHT22;14509;47.992;7.848;2023-08-31T12:41:50;30.90;27.50
2439;DHT22;14509;47.992;7.848;2023-08-31T12:43:52;30.60;28.10
2439;DHT22;14509;47.992;7.848;2023-08-31T12:45:54;30.40;28.50
2439;DHT22;14509;47.992;7.848;2023-08-31T12:47:56;30.20;29.10
2439;DHT22;14509;47.992;7.848;2023-08-31T12:49:57;30.10;29.40
2439;DHT22;14509;47.992;7.848;2023-08-31T12:52:00;30.00;29.40
2439;DHT22;14509;47.992;7.848;2023-08-31T12:54:03;30.00;29.60
2439;DHT22;14509;47.992;7.848;2023-08-31T12:56:05;30.00;29.10
2439;DHT22;14509;47.992;7.848;2023-08-31T12:58:07;30.10;29.00
2439;DHT22;14509;47.992;7.848;2023-08-31T13:00:10;30.10;28.70
2439;DHT22;14509;47.992;7.848;2023-08-31T13:02:13;30.10;28.60
2439;DHT22;14509;47.992;7.848;2023-08-31T13:04:15;30.00;28.60
2439;DHT22;14509;47.992;7.848;2023-08-31T13:06:17;30.10;28.90
2439;DHT22;14509;47.992;7.848;2023-08-31T13:08:20;30.20;28.80
2439;DHT22;14509;47.992;7.848;2023-08-31T13:10:22;30.20;28.90